createdAt,value
2023-05-11T00:01:23.831Z,13.00
2023-05-11T00:03:50.849Z,12.90
2023-05-11T00:06:17.788Z,12.90
2023-05-11T00:08:44.685Z,13.00
2023-05-11T00:11:11.636Z,12.90
2023-05-11T00:13:38.622Z,12.90
2023-05-11T00:16:05.658Z,13.00
2023-05-11T00:18:32.700Z,12.90
2023-05-11T00:20:59.613Z,12.80
2023-05-11T00:23:26.574Z,12.90
2023-05-11T00:25:53.448Z,12.90
2023-05-11T00:28:20.553Z,12.80
2023-05-11T00:30:47.395Z,12.90
2023-05-11T00:33:14.771Z,12.90
2023-05-11T00:35:41.714Z,12.90
2023-05-11T00:38:08.657Z,12.90
2023-05-11T00:40:35.620Z,12.90
2023-05-11T00:43:02.498Z,12.80
2023-05-11T00:45:30.990Z,12.90
2023-05-11T00:47:58.422Z,12.90
2023-05-11T00:50:26.557Z,12.80
2023-05-11T00:52:53.704Z,12.80
2023-05-11T00:55:21.519Z,12.80
2023-05-11T00:57:48.742Z,12.80
2023-05-11T01:00:15.850Z,12.80
2023-05-11T01:02:43.074Z,12.80
2023-05-11T01:05:10.243Z,12.80
2023-05-11T01:07:39.214Z,12.80
2023-05-11T01:10:11.205Z,12.70
2023-05-11T01:12:48.168Z,12.80
2023-05-11T01:15:19.070Z,12.70
2023-05-11T01:17:49.295Z,12.70
2023-05-11T01:20:25.795Z,12.60
2023-05-11T01:22:53.369Z,12.50
2023-05-11T01:25:29.850Z,12.60
2023-05-11T01:28:05.522Z,12.50
2023-05-11T01:30:55.958Z,12.60
2023-05-11T01:33:31.007Z,12.60
2023-05-11T01:36:01.282Z,12.50
2023-05-11T01:38:32.737Z,12.60
2023-05-11T01:41:00.765Z,12.60
2023-05-11T01:43:29.915Z,12.70
2023-05-11T01:46:00.408Z,12.60
2023-05-11T01:48:29.014Z,12.60
2023-05-11T01:50:59.448Z,12.60
2023-05-11T01:53:28.092Z,12.60
2023-05-11T01:55:57.226Z,12.60
2023-05-11T01:58:24.877Z,12.60
2023-05-11T02:00:53.323Z,12.60
2023-05-11T02:03:21.023Z,12.50
2023-05-11T02:05:49.184Z,12.50
2023-05-11T02:08:16.914Z,12.50
2023-05-11T02:10:46.090Z,12.50
2023-05-11T02:13:13.861Z,12.40
2023-05-11T02:15:41.695Z,12.50
2023-05-11T02:18:11.391Z,12.50
2023-05-11T02:20:39.616Z,12.50
2023-05-11T02:23:07.892Z,12.60
2023-05-11T02:25:35.149Z,12.50
2023-05-11T02:28:02.277Z,12.50
2023-05-11T02:30:29.866Z,12.50
2023-05-11T02:32:57.737Z,12.50
2023-05-11T02:35:46.922Z,12.60
2023-05-11T02:38:18.245Z,12.60
2023-05-11T02:46:53.164Z,12.60
2023-05-11T02:49:25.622Z,12.60
2023-05-11T02:52:16.672Z,12.60
2023-05-11T02:54:57.861Z,12.60
2023-05-11T02:57:25.262Z,12.60
2023-05-11T02:59:52.414Z,12.60
2023-05-11T03:02:22.909Z,12.70
2023-05-11T03:04:57.143Z,12.70
2023-05-11T03:07:24.302Z,12.60
2023-05-11T03:10:03.501Z,12.60
2023-05-11T03:12:46.519Z,12.70
2023-05-11T03:15:15.757Z,12.60
2023-05-11T03:21:06.942Z,12.60
2023-05-11T03:23:57.087Z,12.50
2023-05-11T03:26:32.957Z,12.60
2023-05-11T03:29:28.604Z,12.50
2023-05-11T03:31:55.864Z,12.50
2023-05-11T03:34:24.342Z,12.40
2023-05-11T03:36:52.684Z,12.40
2023-05-11T03:39:21.283Z,12.40
2023-05-11T03:41:49.963Z,12.40
2023-05-11T03:44:20.023Z,12.40
2023-05-11T03:46:50.532Z,12.40
2023-05-11T03:49:18.672Z,12.40
2023-05-11T03:51:46.321Z,12.30
2023-05-11T03:54:13.608Z,12.30
2023-05-11T03:56:40.815Z,12.40
2023-05-11T03:59:08.038Z,12.30
2023-05-11T04:01:35.091Z,12.30
2023-05-11T04:04:02.025Z,12.30
2023-05-11T04:06:29.061Z,12.30
2023-05-11T04:09:09.439Z,12.30
2023-05-11T04:11:37.125Z,12.30
2023-05-11T04:14:04.311Z,12.30
2023-05-11T04:16:31.406Z,12.30
2023-05-11T04:18:58.398Z,12.30
2023-05-11T04:21:25.304Z,12.40
2023-05-11T04:23:52.156Z,12.30
2023-05-11T04:26:19.121Z,12.30
2023-05-11T04:28:46.164Z,12.40
2023-05-11T04:31:14.287Z,12.30
2023-05-11T04:33:41.336Z,12.30
2023-05-11T04:36:08.356Z,12.30
2023-05-11T04:38:35.370Z,12.20
2023-05-11T04:41:05.800Z,12.30
2023-05-11T04:43:32.849Z,12.30
2023-05-11T04:45:59.762Z,12.20
2023-05-11T04:48:28.213Z,12.20
2023-05-11T04:50:55.999Z,12.20
2023-05-11T04:53:26.711Z,12.20
2023-05-11T04:55:53.912Z,12.20
2023-05-11T04:58:21.649Z,12.20
2023-05-11T05:00:49.404Z,12.10
2023-05-11T05:03:16.481Z,12.10
2023-05-11T05:05:43.388Z,12.10
2023-05-11T05:08:10.418Z,12.20
2023-05-11T05:10:38.349Z,12.20
2023-05-11T05:13:05.492Z,12.10
2023-05-11T05:15:32.705Z,12.20
2023-05-11T05:17:59.842Z,12.20
2023-05-11T05:20:27.169Z,12.20
2023-05-11T05:22:55.266Z,12.20
2023-05-11T05:25:22.380Z,12.30
2023-05-11T05:27:49.678Z,12.30
2023-05-11T05:30:19.268Z,12.30
2023-05-11T05:32:47.745Z,12.30
2023-05-11T05:35:15.053Z,12.30
2023-05-11T05:37:43.235Z,12.30
2023-05-11T05:40:11.587Z,12.30
2023-05-11T05:42:44.600Z,12.40
2023-05-11T05:45:15.722Z,12.30
2023-05-11T05:47:43.252Z,12.30
2023-05-11T05:50:12.807Z,12.30
2023-05-11T05:52:41.934Z,12.30
2023-05-11T05:55:09.615Z,12.30
2023-05-11T05:57:37.750Z,12.30
2023-05-11T06:00:05.237Z,12.30
2023-05-11T06:02:39.733Z,12.30
2023-05-11T06:05:08.834Z,12.30
2023-05-11T06:07:36.457Z,12.30
2023-05-11T06:10:04.135Z,12.30
2023-05-11T06:12:34.595Z,12.30
2023-05-11T06:15:02.052Z,12.30
2023-05-11T06:17:31.663Z,12.40
2023-05-11T06:19:58.660Z,12.30
2023-05-11T06:22:28.520Z,12.30
2023-05-11T06:24:55.507Z,12.40
2023-05-11T06:27:22.489Z,12.50
2023-05-11T06:29:53.383Z,12.40
2023-05-11T06:32:20.440Z,12.40
2023-05-11T06:34:47.918Z,12.60
2023-05-11T06:37:20.478Z,12.50
2023-05-11T06:39:49.870Z,12.50
2023-05-11T06:42:16.961Z,12.60
2023-05-11T06:44:44.244Z,12.70
2023-05-11T06:47:11.383Z,12.70
2023-05-11T06:49:38.248Z,12.80
2023-05-11T06:52:06.513Z,12.80
2023-05-11T06:54:34.067Z,12.90
2023-05-11T06:57:03.945Z,12.90
2023-05-11T06:59:31.234Z,13.00
2023-05-11T07:02:01.372Z,13.10
2023-05-11T07:04:29.902Z,13.10
2023-05-11T07:06:57.051Z,13.10
2023-05-11T07:09:26.199Z,13.10
2023-05-11T07:11:53.269Z,13.20
2023-05-11T07:14:21.606Z,13.30
2023-05-11T07:16:49.013Z,13.30
2023-05-11T07:19:16.094Z,13.40
2023-05-11T07:21:43.042Z,13.40
2023-05-11T07:24:09.962Z,13.40
2023-05-11T07:26:36.836Z,13.50
2023-05-11T07:29:04.042Z,13.50
2023-05-11T07:31:31.139Z,13.50
2023-05-11T07:33:58.144Z,13.60
2023-05-11T07:36:25.824Z,13.50
2023-05-11T07:38:52.912Z,13.60
2023-05-11T07:41:23.128Z,13.60
2023-05-11T07:43:50.153Z,13.70
2023-05-11T07:46:17.141Z,13.70
2023-05-11T07:48:44.352Z,13.80
2023-05-11T07:51:11.352Z,13.80
2023-05-11T07:53:38.458Z,13.80
2023-05-11T07:56:06.206Z,13.80
2023-05-11T07:58:33.171Z,13.90
2023-05-11T08:01:00.120Z,14.00
2023-05-11T08:03:27.258Z,14.10
2023-05-11T08:05:54.333Z,14.10
2023-05-11T08:08:21.275Z,14.20
2023-05-11T08:10:48.212Z,14.30
2023-05-11T08:13:15.118Z,14.30
2023-05-11T08:15:42.092Z,14.30
2023-05-11T08:18:09.063Z,14.50
2023-05-11T08:20:36.009Z,14.50
2023-05-11T08:23:03.260Z,14.50
2023-05-11T08:25:30.342Z,14.60
2023-05-11T08:27:57.240Z,14.70
2023-05-11T08:30:24.061Z,14.80
2023-05-11T08:32:58.600Z,14.80
2023-05-11T08:35:26.141Z,14.80
2023-05-11T08:37:52.998Z,14.90
2023-05-11T08:40:20.429Z,14.90
2023-05-11T08:42:49.160Z,15.00
2023-05-11T08:45:17.444Z,15.00
2023-05-11T08:47:45.670Z,15.00
2023-05-11T08:50:12.869Z,15.20
2023-05-11T08:52:40.907Z,15.10
2023-05-11T08:55:10.046Z,15.20
2023-05-11T08:57:38.631Z,15.20
2023-05-11T09:00:05.772Z,15.30
2023-05-11T09:02:33.463Z,15.20
2023-05-11T09:05:04.183Z,15.20
2023-05-11T09:07:31.905Z,15.30
2023-05-11T09:10:01.729Z,15.20
2023-05-11T09:12:29.063Z,15.30
2023-05-11T09:15:02.000Z,15.20
2023-05-11T09:17:30.424Z,15.30
2023-05-11T09:20:01.352Z,15.10
2023-05-11T09:22:30.812Z,15.00
2023-05-11T09:24:59.850Z,14.90
2023-05-11T09:27:27.160Z,14.80
2023-05-11T09:29:54.597Z,14.70
2023-05-11T09:32:21.657Z,14.60
2023-05-11T09:34:48.895Z,14.40
2023-05-11T09:37:19.211Z,14.30
2023-05-11T09:40:13.921Z,14.20
2023-05-11T09:42:33.316Z,14.10
2023-05-11T09:45:00.247Z,14.00
2023-05-11T09:47:28.882Z,13.90
2023-05-11T09:49:55.818Z,13.90
2023-05-11T09:52:23.373Z,13.90
2023-05-11T09:54:51.429Z,13.80
2023-05-11T09:57:24.610Z,13.80
2023-05-11T09:59:51.842Z,13.80
2023-05-11T10:02:18.761Z,13.80
2023-05-11T10:04:46.027Z,13.70
2023-05-11T10:07:23.333Z,13.70
2023-05-11T10:09:51.017Z,13.70
2023-05-11T10:12:18.792Z,13.70
2023-05-11T10:14:45.992Z,13.70
2023-05-11T10:17:13.292Z,13.70
2023-05-11T10:19:40.301Z,13.70
2023-05-11T10:22:07.487Z,13.70
2023-05-11T10:24:34.449Z,13.70
2023-05-11T10:27:01.771Z,13.60
2023-05-11T10:29:30.150Z,13.60
2023-05-11T10:31:57.772Z,13.60
2023-05-11T10:34:24.766Z,13.70
2023-05-11T10:36:52.452Z,13.70
2023-05-11T10:39:19.433Z,13.70
2023-05-11T10:41:55.827Z,13.70
2023-05-11T10:44:41.545Z,13.70
2023-05-11T10:47:11.613Z,13.70
2023-05-11T10:49:38.505Z,13.70
2023-05-11T10:52:24.189Z,13.70
2023-05-11T10:54:57.354Z,13.70
2023-05-11T10:57:42.075Z,13.70
2023-05-11T11:00:18.770Z,13.70
2023-05-11T11:02:46.006Z,13.70
2023-05-11T11:05:17.461Z,13.70
2023-05-11T11:08:00.798Z,13.70
2023-05-11T11:10:32.431Z,13.70
2023-05-11T11:13:07.038Z,13.70
2023-05-11T11:15:52.846Z,13.70
2023-05-11T11:18:25.004Z,13.70
2023-05-11T11:20:55.381Z,13.60
2023-05-11T11:23:41.401Z,13.60
2023-05-11T11:26:10.111Z,13.50
2023-05-11T11:29:00.702Z,13.50
2023-05-11T11:31:32.671Z,13.50
2023-05-11T11:34:19.915Z,13.50
2023-05-11T11:36:56.156Z,13.50
2023-05-11T11:39:27.263Z,13.50
2023-05-11T11:42:04.266Z,13.50
2023-05-11T11:44:31.599Z,13.50
2023-05-11T11:47:11.254Z,13.50
2023-05-11T11:49:38.642Z,13.50
2023-05-11T11:52:07.201Z,13.50
2023-05-11T11:54:40.863Z,13.50
2023-05-11T11:57:26.815Z,13.60
2023-05-11T11:59:54.337Z,13.70
2023-05-11T12:02:22.683Z,13.80
2023-05-11T12:04:57.000Z,13.90
2023-05-11T12:07:24.986Z,14.00
2023-05-11T12:09:53.150Z,14.30
2023-05-11T12:12:21.024Z,14.40
2023-05-11T12:14:51.003Z,14.60
2023-05-11T12:17:25.275Z,14.80
2023-05-11T12:19:52.375Z,15.10
2023-05-11T12:22:26.062Z,15.40
2023-05-11T12:24:57.746Z,15.60
2023-05-11T12:27:26.715Z,15.80
2023-05-11T12:29:53.716Z,16.10
2023-05-11T12:32:30.593Z,16.40
2023-05-11T12:35:01.326Z,16.50
2023-05-11T12:37:31.128Z,16.70
2023-05-11T12:39:58.386Z,16.70
2023-05-11T12:42:25.389Z,17.00
2023-05-11T12:44:52.501Z,17.10
2023-05-11T12:47:19.582Z,17.60
2023-05-11T12:49:46.600Z,17.80
2023-05-11T12:52:14.120Z,18.00
2023-05-11T12:54:43.529Z,18.10
2023-05-11T12:57:24.133Z,18.40
2023-05-11T13:00:05.520Z,18.70
2023-05-11T13:02:32.652Z,19.20
2023-05-11T13:04:59.691Z,19.70
2023-05-11T13:07:27.626Z,20.00
2023-05-11T13:10:00.701Z,20.10
2023-05-11T13:12:30.202Z,20.20
2023-05-11T13:15:10.099Z,19.90
2023-05-11T13:17:37.760Z,19.90
2023-05-11T13:20:17.062Z,19.60
2023-05-11T13:22:44.402Z,19.50
2023-05-11T13:25:11.418Z,19.20
2023-05-11T13:27:38.397Z,19.10
2023-05-11T13:30:06.494Z,18.90
2023-05-11T13:32:34.061Z,18.90
2023-05-11T13:35:02.008Z,18.70
2023-05-11T13:37:28.917Z,18.50
2023-05-11T13:39:56.036Z,18.40
2023-05-11T13:42:23.491Z,18.50
2023-05-11T13:44:50.496Z,18.40
2023-05-11T13:47:17.425Z,18.40
2023-05-11T13:49:44.355Z,18.20
2023-05-11T13:52:11.438Z,18.20
2023-05-11T13:54:38.427Z,18.20
2023-05-11T13:57:05.719Z,18.00
2023-05-11T13:59:32.643Z,18.10
2023-05-11T14:01:59.627Z,18.10
2023-05-11T14:04:26.740Z,18.20
2023-05-11T14:06:53.669Z,18.30
2023-05-11T14:09:20.670Z,18.40
2023-05-11T14:11:47.725Z,18.50
2023-05-11T14:14:14.687Z,18.70
2023-05-11T14:16:41.612Z,18.90
2023-05-11T14:19:09.175Z,18.90
2023-05-11T14:21:36.583Z,19.10
2023-05-11T14:24:11.374Z,19.10
2023-05-11T14:26:39.394Z,19.20
2023-05-11T14:29:06.268Z,19.10
2023-05-11T14:31:34.842Z,19.00
2023-05-11T14:34:02.440Z,18.80
2023-05-11T14:36:29.448Z,18.60
2023-05-11T14:38:56.710Z,18.50
2023-05-11T14:41:23.628Z,18.50
2023-05-11T14:43:50.504Z,18.20
2023-05-11T14:46:17.894Z,18.30
2023-05-11T14:48:44.951Z,18.10
2023-05-11T14:51:11.895Z,17.90
2023-05-11T14:53:38.822Z,17.90
2023-05-11T14:56:06.010Z,17.80
2023-05-11T14:58:32.905Z,17.80
2023-05-11T15:00:59.795Z,17.70
2023-05-11T15:03:26.934Z,17.70
2023-05-11T15:05:53.939Z,17.70
2023-05-11T15:08:29.470Z,17.70
2023-05-11T15:10:57.513Z,17.60
2023-05-11T15:13:24.710Z,17.40
2023-05-11T15:15:52.034Z,17.50
2023-05-11T15:18:19.179Z,17.30
2023-05-11T15:20:47.264Z,17.30
2023-05-11T15:23:17.480Z,17.30
2023-05-11T15:25:45.129Z,17.00
2023-05-11T15:28:12.567Z,17.00
2023-05-11T15:30:41.779Z,17.00
2023-05-11T15:33:10.050Z,17.00
2023-05-11T15:35:38.106Z,16.80
2023-05-11T15:38:05.222Z,16.80
2023-05-11T15:40:32.582Z,16.70
2023-05-11T15:42:59.873Z,16.80
2023-05-11T15:45:27.099Z,16.80
2023-05-11T15:47:54.470Z,16.70
2023-05-11T15:50:22.149Z,16.60
2023-05-11T15:52:49.417Z,16.70
2023-05-11T15:55:16.460Z,16.60
2023-05-11T15:57:44.780Z,16.60
2023-05-11T16:00:12.761Z,16.50
2023-05-11T16:02:39.972Z,16.60
2023-05-11T16:05:07.104Z,16.50
2023-05-11T16:07:34.288Z,16.50
2023-05-11T16:10:12.386Z,16.50
2023-05-11T16:12:44.339Z,16.60
2023-05-11T16:15:12.011Z,16.60
2023-05-11T16:17:39.123Z,16.40
2023-05-11T16:20:06.821Z,16.40
2023-05-11T16:22:35.402Z,16.30
2023-05-11T16:25:02.312Z,16.30
2023-05-11T16:27:29.185Z,16.30
2023-05-11T16:29:56.098Z,16.10
2023-05-11T16:32:23.142Z,16.00
2023-05-11T16:34:50.107Z,15.90
2023-05-11T16:37:17.157Z,16.00
2023-05-11T16:39:44.827Z,15.80
2023-05-11T16:42:12.121Z,15.80
2023-05-11T16:44:39.295Z,15.80
2023-05-11T16:47:06.385Z,15.70
2023-05-11T16:49:33.519Z,15.80
2023-05-11T16:52:00.929Z,15.50
2023-05-11T16:54:28.076Z,15.50
2023-05-11T16:56:54.982Z,15.50
2023-05-11T16:59:21.993Z,15.40
2023-05-11T17:01:49.776Z,15.50
2023-05-11T17:04:17.169Z,15.50
2023-05-11T17:06:44.280Z,15.40
2023-05-11T17:09:11.638Z,15.40
2023-05-11T17:11:38.586Z,15.30
2023-05-11T17:14:05.596Z,15.30
2023-05-11T17:16:32.669Z,15.20
2023-05-11T17:18:59.730Z,15.30
2023-05-11T17:21:26.885Z,15.10
2023-05-11T17:23:53.784Z,15.10
2023-05-11T17:26:25.091Z,15.10
2023-05-11T17:28:54.510Z,15.00
2023-05-11T17:31:21.507Z,15.00
2023-05-11T17:33:48.745Z,15.10
2023-05-11T17:36:15.828Z,14.90
2023-05-11T17:38:43.074Z,14.80
2023-05-11T17:41:10.085Z,14.90
2023-05-11T17:43:38.097Z,14.80
2023-05-11T17:46:05.290Z,14.80
2023-05-11T17:48:32.514Z,14.80
2023-05-11T17:50:59.641Z,14.70
2023-05-11T17:53:27.406Z,14.60
2023-05-11T17:55:54.518Z,14.70
2023-05-11T17:58:21.450Z,14.60
2023-05-11T18:00:49.441Z,14.60
2023-05-11T18:03:17.072Z,14.60
2023-05-11T18:08:14.336Z,14.60
2023-05-11T18:10:41.333Z,14.50
2023-05-11T18:13:08.950Z,14.50
2023-05-11T18:15:35.982Z,14.50
2023-05-11T18:18:03.526Z,14.50
2023-05-11T18:20:30.978Z,14.40
2023-05-11T18:22:58.244Z,14.30
2023-05-11T18:25:27.889Z,14.30
2023-05-11T18:27:55.150Z,14.30
2023-05-11T18:30:22.207Z,14.20
2023-05-11T18:32:49.355Z,14.20
2023-05-11T18:35:17.005Z,14.10
2023-05-11T18:37:44.019Z,14.00
2023-05-11T18:40:11.245Z,14.00
2023-05-11T18:42:38.240Z,14.00
2023-05-11T18:45:05.818Z,14.00
2023-05-11T18:47:36.145Z,13.90
2023-05-11T18:50:04.233Z,13.90
2023-05-11T18:52:31.324Z,13.90
2023-05-11T18:54:58.574Z,13.90
2023-05-11T18:57:25.574Z,13.90
2023-05-11T18:59:52.761Z,13.80
2023-05-11T19:02:19.721Z,13.90
2023-05-11T19:04:46.619Z,13.80
2023-05-11T19:07:13.616Z,13.80
2023-05-11T19:09:40.512Z,13.70
2023-05-11T19:12:07.693Z,13.70
2023-05-11T19:14:37.573Z,13.80
2023-05-11T19:17:05.357Z,13.70
2023-05-11T19:19:32.329Z,13.70
2023-05-11T19:21:59.492Z,13.60
2023-05-11T19:24:26.510Z,13.70
2023-05-11T19:27:05.739Z,13.70
2023-05-11T19:29:34.052Z,13.60
2023-05-11T19:32:01.250Z,13.60
2023-05-11T19:34:28.219Z,13.70
2023-05-11T19:36:55.159Z,13.70
2023-05-11T19:39:22.112Z,13.70
2023-05-11T19:41:49.039Z,13.70
2023-05-11T19:44:16.005Z,13.70
2023-05-11T19:46:45.848Z,13.60
2023-05-11T19:49:13.610Z,13.60
2023-05-11T19:51:40.588Z,13.70
2023-05-11T19:54:07.502Z,13.70
2023-05-11T19:56:34.538Z,13.70
2023-05-11T19:59:02.714Z,13.60
2023-05-11T20:01:29.683Z,13.60
2023-05-11T20:03:56.807Z,13.60
2023-05-11T20:06:24.742Z,13.60
2023-05-11T20:08:53.040Z,13.60
2023-05-11T20:11:20.343Z,13.50
2023-05-11T20:13:47.984Z,13.60
2023-05-11T20:16:15.024Z,13.50
2023-05-11T20:18:42.263Z,13.50
2023-05-11T20:21:09.281Z,13.50
2023-05-11T20:23:37.712Z,13.50
2023-05-11T20:26:04.933Z,13.40
2023-05-11T20:28:32.034Z,13.40
2023-05-11T20:30:59.236Z,13.40
2023-05-11T20:35:56.061Z,13.40
2023-05-11T20:38:23.737Z,13.30
2023-05-11T20:40:55.521Z,13.40
2023-05-11T20:43:23.998Z,13.40
2023-05-11T20:45:51.872Z,13.30
2023-05-11T20:48:25.993Z,13.40
2023-05-11T20:51:03.139Z,13.40
2023-05-11T20:53:33.464Z,13.30
2023-05-11T20:56:02.620Z,13.30
2023-05-11T20:58:30.941Z,13.30
2023-05-11T21:00:58.051Z,13.40
2023-05-11T21:03:25.872Z,13.40
2023-05-11T21:05:53.524Z,13.40
2023-05-11T21:08:20.799Z,13.30
2023-05-11T21:10:47.912Z,13.30
2023-05-11T21:13:14.857Z,13.30
2023-05-11T21:15:41.863Z,13.30
2023-05-11T21:18:08.917Z,13.30
2023-05-11T21:20:36.112Z,13.30
2023-05-11T21:23:03.858Z,13.20
2023-05-11T21:25:31.015Z,13.20
2023-05-11T21:27:57.957Z,13.30
2023-05-11T21:30:25.005Z,13.20
2023-05-11T21:32:51.979Z,13.10
2023-05-11T21:35:18.900Z,13.20
2023-05-11T21:37:49.623Z,13.10
2023-05-11T21:40:17.914Z,13.10
2023-05-11T21:42:45.366Z,13.10
2023-05-11T21:45:12.497Z,13.00
2023-05-11T21:47:39.781Z,13.00
2023-05-11T21:50:07.878Z,13.00
2023-05-11T21:52:34.962Z,13.00
2023-05-11T21:55:02.009Z,12.90
2023-05-11T21:57:29.779Z,13.00
2023-05-11T21:59:56.883Z,12.90
2023-05-11T22:02:23.837Z,12.90
2023-05-11T22:04:50.873Z,12.80
2023-05-11T22:07:17.801Z,12.80
2023-05-11T22:09:45.414Z,12.80
2023-05-11T22:12:12.400Z,12.80
2023-05-11T22:14:39.648Z,12.80
2023-05-11T22:17:06.663Z,12.80
2023-05-11T22:19:33.872Z,12.70
2023-05-11T22:22:00.877Z,12.80
2023-05-11T22:24:27.841Z,12.80
2023-05-11T22:26:56.286Z,12.70
2023-05-11T22:29:23.244Z,12.80
2023-05-11T22:31:50.251Z,12.80
2023-05-11T22:34:17.250Z,12.80
2023-05-11T22:36:44.215Z,12.80
2023-05-11T22:39:11.567Z,12.80
2023-05-11T22:41:38.694Z,12.90
2023-05-11T22:44:05.821Z,12.80
2023-05-11T22:46:32.882Z,12.80
2023-05-11T22:48:59.844Z,12.70
2023-05-11T22:51:29.596Z,12.70
2023-05-11T22:53:56.512Z,12.70
2023-05-11T22:56:23.439Z,12.70
2023-05-11T22:58:51.098Z,12.70
2023-05-11T23:01:18.123Z,12.70
2023-05-11T23:03:45.455Z,12.70
2023-05-11T23:06:12.494Z,12.70
2023-05-11T23:08:39.483Z,12.80
2023-05-11T23:11:07.587Z,12.70
2023-05-11T23:13:35.039Z,12.70
2023-05-11T23:16:04.872Z,12.70
2023-05-11T23:18:32.186Z,12.70
2023-05-11T23:20:59.478Z,12.70
2023-05-11T23:23:26.860Z,12.70
2023-05-11T23:25:53.843Z,12.80
2023-05-11T23:28:20.873Z,12.80
2023-05-11T23:30:47.794Z,12.70
2023-05-11T23:33:15.241Z,12.70
2023-05-11T23:35:42.246Z,12.70
2023-05-11T23:38:09.196Z,12.70
2023-05-11T23:40:36.418Z,12.70
2023-05-11T23:43:03.388Z,12.70
2023-05-11T23:45:30.865Z,12.70
2023-05-11T23:47:57.902Z,12.70
2023-05-11T23:50:24.886Z,12.70
2023-05-11T23:52:51.809Z,12.80
2023-05-11T23:55:18.822Z,12.70
2023-05-11T23:57:45.768Z,12.80
